createdAt,value
2019-05-12T00:00:29.693Z,74.54
2019-05-12T00:02:59.116Z,74.71
2019-05-12T00:05:27.786Z,75.42
2019-05-12T00:07:54.514Z,75.11
2019-05-12T00:10:21.372Z,74.73
2019-05-12T00:12:48.674Z,74.44
2019-05-12T00:15:18.779Z,74.38
2019-05-12T00:17:45.100Z,73.79
2019-05-12T00:20:12.214Z,74.21
2019-05-12T00:22:50.167Z,74.05
2019-05-12T00:25:18.111Z,74.02
2019-05-12T00:27:48.257Z,74.00
2019-05-12T00:30:18.411Z,73.90
2019-05-12T00:32:47.755Z,74.18
2019-05-12T00:35:18.260Z,74.09
2019-05-12T00:37:45.460Z,74.48
2019-05-12T00:40:12.450Z,74.46
2019-05-12T00:42:39.898Z,74.96
2019-05-12T00:45:08.083Z,75.09
2019-05-12T00:47:35.791Z,75.33
2019-05-12T00:50:04.903Z,75.37
2019-05-12T00:52:32.001Z,75.88
2019-05-12T00:54:59.058Z,76.45
2019-05-12T00:57:25.856Z,76.75
2019-05-12T00:59:52.723Z,76.29
2019-05-12T01:02:19.787Z,75.97
2019-05-12T01:04:48.698Z,75.77
2019-05-12T01:07:15.419Z,75.80
2019-05-12T01:09:42.939Z,76.52
2019-05-12T01:12:09.706Z,77.20
2019-05-12T01:14:38.392Z,77.36
2019-05-12T01:17:05.300Z,76.92
2019-05-12T01:19:33.109Z,77.16
2019-05-12T01:22:00.481Z,77.24
2019-05-12T01:24:28.238Z,76.79
2019-05-12T01:26:58.581Z,76.95
2019-05-12T01:29:28.017Z,77.21
2019-05-12T01:32:14.116Z,77.36
2019-05-12T01:34:40.914Z,77.43
2019-05-12T01:37:23.100Z,76.82
2019-05-12T01:39:52.122Z,76.16
2019-05-12T01:42:19.196Z,76.38
2019-05-12T01:44:48.154Z,76.72
2019-05-12T01:47:18.797Z,76.47
2019-05-12T01:49:45.843Z,76.44
2019-05-12T01:52:13.186Z,76.58
2019-05-12T01:54:42.808Z,76.24
2019-05-12T01:57:09.660Z,75.86
2019-05-12T01:59:38.150Z,75.72
2019-05-12T02:02:05.684Z,75.61
2019-05-12T02:04:37.962Z,75.65
2019-05-12T02:07:08.328Z,75.86
2019-05-12T02:09:38.729Z,75.89
2019-05-12T02:12:08.248Z,76.08
2019-05-12T02:14:35.182Z,76.06
2019-05-12T02:17:01.948Z,75.98
2019-05-12T02:19:28.712Z,75.77
2019-05-12T02:21:57.787Z,75.59
2019-05-12T02:24:27.348Z,75.57
2019-05-12T02:26:52.860Z,75.39
2019-05-12T02:29:20.003Z,75.44
2019-05-12T02:31:50.038Z,75.36
2019-05-12T02:34:16.279Z,75.40
2019-05-12T02:36:44.769Z,75.94
2019-05-12T02:39:14.998Z,75.95
2019-05-12T02:41:41.131Z,75.87
2019-05-12T02:44:07.903Z,75.69
2019-05-12T02:46:35.084Z,75.43
2019-05-12T02:49:04.885Z,75.32
2019-05-12T02:51:35.185Z,75.13
2019-05-12T02:54:01.697Z,74.96
2019-05-12T02:56:30.210Z,74.93
2019-05-12T02:59:00.124Z,74.92
2019-05-12T03:01:27.629Z,74.93
2019-05-12T03:03:57.201Z,74.79
2019-05-12T03:06:25.215Z,75.02
2019-05-12T03:08:55.155Z,74.96
2019-05-12T03:11:27.171Z,74.62
2019-05-12T03:13:54.853Z,74.71
2019-05-12T03:16:25.391Z,74.40
2019-05-12T03:18:50.593Z,74.68
2019-05-12T03:21:17.351Z,74.55
2019-05-12T03:23:44.972Z,74.28
2019-05-12T03:26:15.368Z,74.21
2019-05-12T03:28:44.371Z,74.29
2019-05-12T03:31:09.996Z,74.26
2019-05-12T03:33:43.696Z,74.33
2019-05-12T03:36:08.976Z,74.46
2019-05-12T03:38:36.002Z,74.44
2019-05-12T03:41:05.318Z,74.05
2019-05-12T03:43:35.089Z,73.99
2019-05-12T03:46:04.937Z,74.23
2019-05-12T03:48:29.904Z,74.27
2019-05-12T03:50:56.748Z,74.20
2019-05-12T03:53:24.775Z,74.42
2019-05-12T03:55:55.264Z,74.40
2019-05-12T03:58:21.082Z,74.22
2019-05-12T04:00:48.162Z,74.25
2019-05-12T04:03:15.548Z,74.35
2019-05-12T04:05:45.259Z,74.44
2019-05-12T04:08:11.334Z,74.64
2019-05-12T04:10:38.142Z,74.29
2019-05-12T04:13:05.061Z,74.18
2019-05-12T04:15:34.706Z,74.00
2019-05-12T04:18:00.827Z,73.99
2019-05-12T04:20:27.625Z,74.08
2019-05-12T04:22:54.844Z,74.00
2019-05-12T04:25:24.990Z,74.19
2019-05-12T04:27:54.076Z,74.06
2019-05-12T04:30:20.340Z,74.28
2019-05-12T04:32:47.566Z,74.51
2019-05-12T04:35:15.302Z,74.31
2019-05-12T04:37:44.915Z,73.95
2019-05-12T04:40:14.577Z,73.92
2019-05-12T04:42:40.570Z,74.32
2019-05-12T04:45:07.828Z,74.18
2019-05-12T04:47:35.532Z,74.15
2019-05-12T04:50:05.384Z,73.82
2019-05-12T04:52:35.135Z,74.15
2019-05-12T04:55:04.685Z,73.85
2019-05-12T04:57:34.353Z,73.64
2019-05-12T05:00:04.818Z,73.59
2019-05-12T05:02:30.761Z,73.67
2019-05-12T05:04:57.655Z,73.58
2019-05-12T05:07:24.596Z,73.69
2019-05-12T05:09:51.386Z,73.65
2019-05-12T05:12:18.176Z,73.81
2019-05-12T05:14:44.931Z,74.20
2019-05-12T05:17:11.775Z,74.41
2019-05-12T05:19:38.786Z,74.18
2019-05-12T05:22:05.550Z,73.97
2019-05-12T05:24:33.920Z,73.89
2019-05-12T05:27:00.914Z,73.66
2019-05-12T05:29:27.720Z,73.04
2019-05-12T05:31:54.642Z,72.90
2019-05-12T05:34:23.462Z,72.76
2019-05-12T05:36:51.051Z,72.76
2019-05-12T05:39:19.340Z,73.13
2019-05-12T05:41:50.926Z,73.14
2019-05-12T05:44:14.779Z,73.10
2019-05-12T05:46:47.746Z,72.74
2019-05-12T05:49:10.675Z,72.71
2019-05-12T05:51:44.407Z,73.26
2019-05-12T05:54:07.285Z,72.89
2019-05-12T05:56:42.452Z,72.46
2019-05-12T05:59:04.597Z,72.13
2019-05-12T06:01:34.500Z,72.24
2019-05-12T06:04:04.258Z,72.10
2019-05-12T06:06:29.300Z,71.67
2019-05-12T06:08:57.372Z,71.45
2019-05-12T06:11:28.345Z,71.50
2019-05-12T06:13:54.690Z,71.23
2019-05-12T06:16:24.916Z,71.36
2019-05-12T06:18:50.420Z,70.82
2019-05-12T06:21:17.396Z,71.10
2019-05-12T06:23:44.402Z,70.79
2019-05-12T06:26:13.821Z,70.66
2019-05-12T06:28:41.272Z,70.55
2019-05-12T06:31:08.579Z,70.64
2019-05-12T06:33:36.998Z,70.34
2019-05-12T06:36:07.067Z,70.14
2019-05-12T06:38:37.194Z,70.27
2019-05-12T06:41:03.602Z,69.99
2019-05-12T06:43:35.277Z,70.07
2019-05-12T06:45:58.989Z,69.78
2019-05-12T06:48:30.174Z,69.74
2019-05-12T06:50:54.666Z,69.87
2019-05-12T06:53:29.026Z,69.62
2019-05-12T06:55:50.156Z,69.69
2019-05-12T06:58:26.032Z,69.42
2019-05-12T07:00:46.329Z,69.41
2019-05-12T07:03:14.279Z,69.40
2019-05-12T07:05:43.245Z,69.47
2019-05-12T07:08:10.722Z,69.10
2019-05-12T07:10:43.357Z,69.12
2019-05-12T07:13:06.414Z,69.53
2019-05-12T07:15:35.580Z,69.58
2019-05-12T07:18:10.543Z,68.54
2019-05-12T07:20:39.154Z,68.73
2019-05-12T07:23:06.424Z,68.46
2019-05-12T07:25:36.268Z,68.25
2019-05-12T07:28:07.271Z,67.83
2019-05-12T07:30:35.021Z,67.45
2019-05-12T07:33:01.503Z,67.36
2019-05-12T07:35:33.812Z,67.04
2019-05-12T07:38:01.059Z,66.61
2019-05-12T07:40:30.123Z,66.63
2019-05-12T07:42:58.123Z,66.64
2019-05-12T07:45:25.507Z,66.30
2019-05-12T07:47:54.104Z,65.97
2019-05-12T07:50:26.931Z,65.96
2019-05-12T07:52:51.151Z,66.03
2019-05-12T07:55:17.988Z,65.91
2019-05-12T07:57:54.734Z,65.94
2019-05-12T08:00:25.775Z,65.72
2019-05-12T08:02:48.407Z,65.74
2019-05-12T08:05:20.109Z,65.09
2019-05-12T08:07:44.587Z,64.91
2019-05-12T08:10:19.963Z,64.85
2019-05-12T08:12:44.340Z,64.37
2019-05-12T08:15:13.598Z,64.32
2019-05-12T08:17:40.353Z,64.58
2019-05-12T08:20:13.690Z,64.36
2019-05-12T08:22:40.980Z,64.63
2019-05-12T08:25:08.443Z,64.85
2019-05-12T08:27:39.068Z,64.89
2019-05-12T08:30:06.283Z,64.60
2019-05-12T08:32:33.853Z,64.66
2019-05-12T08:35:00.857Z,64.60
2019-05-12T08:37:27.640Z,64.74
2019-05-12T08:40:03.457Z,64.77
2019-05-12T08:42:23.816Z,64.64
2019-05-12T08:44:50.802Z,64.36
2019-05-12T08:47:17.573Z,64.40
2019-05-12T08:49:53.409Z,63.82
2019-05-12T08:52:14.192Z,63.77
2019-05-12T08:54:45.417Z,63.44
2019-05-12T08:57:09.927Z,62.98
2019-05-12T08:59:36.692Z,63.17
2019-05-12T09:02:07.377Z,63.00
2019-05-12T09:04:33.896Z,62.70
2019-05-12T09:07:01.740Z,62.34
2019-05-12T09:09:28.491Z,62.19
2019-05-12T09:11:55.722Z,61.93
2019-05-12T09:14:23.899Z,61.60
2019-05-12T09:16:56.003Z,61.67
2019-05-12T09:19:24.106Z,61.59
2019-05-12T09:21:48.317Z,61.42
2019-05-12T09:24:22.063Z,61.29
2019-05-12T09:26:43.869Z,61.24
2019-05-12T09:29:10.607Z,61.14
2019-05-12T09:31:37.679Z,61.04
2019-05-12T09:34:11.495Z,61.25
2019-05-12T09:36:34.066Z,61.34
2019-05-12T09:39:01.823Z,61.49
2019-05-12T09:41:35.938Z,61.38
2019-05-12T09:44:01.266Z,61.10
2019-05-12T09:46:28.433Z,60.91
2019-05-12T09:48:56.575Z,60.84
2019-05-12T09:51:23.909Z,60.88
2019-05-12T09:53:55.333Z,60.81
2019-05-12T09:56:23.831Z,60.60
2019-05-12T09:58:59.018Z,60.22
2019-05-12T10:01:19.664Z,60.25
2019-05-12T10:03:46.669Z,60.21
2019-05-12T10:06:17.898Z,60.30
2019-05-12T10:08:43.574Z,60.11
2019-05-12T10:11:15.766Z,59.99
2019-05-12T10:13:41.531Z,60.09
2019-05-12T10:16:09.010Z,60.25
2019-05-12T10:18:35.923Z,59.73
2019-05-12T10:21:03.058Z,59.88
2019-05-12T10:23:29.929Z,60.44
2019-05-12T10:26:01.568Z,60.07
2019-05-12T10:28:25.722Z,59.49
2019-05-12T10:30:56.561Z,59.59
2019-05-12T10:33:23.294Z,59.44
2019-05-12T10:35:50.211Z,59.17
2019-05-12T10:38:16.979Z,58.15
2019-05-12T10:40:44.521Z,57.52
2019-05-12T10:43:12.702Z,57.01
2019-05-12T10:45:39.640Z,56.63
2019-05-12T10:48:06.517Z,56.05
2019-05-12T10:50:34.306Z,55.42
2019-05-12T10:53:04.211Z,54.70
2019-05-12T10:55:30.719Z,54.10
2019-05-12T10:58:01.330Z,54.19
2019-05-12T11:00:27.603Z,54.48
2019-05-12T11:02:54.808Z,54.84
2019-05-12T11:05:23.794Z,55.45
2019-05-12T11:07:50.346Z,55.96
2019-05-12T11:10:20.048Z,56.67
2019-05-12T11:12:47.258Z,55.81
2019-05-12T11:15:15.247Z,54.59
2019-05-12T11:17:53.192Z,53.62
2019-05-12T11:20:19.961Z,53.68
2019-05-12T11:22:46.937Z,54.83
2019-05-12T11:25:14.491Z,54.81
2019-05-12T11:27:43.710Z,55.42
2019-05-12T11:30:13.198Z,55.46
2019-05-12T11:32:40.252Z,55.78
2019-05-12T11:35:07.591Z,56.14
2019-05-12T11:37:34.542Z,56.41
2019-05-12T11:40:01.311Z,56.75
2019-05-12T11:42:28.175Z,56.29
2019-05-12T11:44:55.458Z,55.27
2019-05-12T11:47:24.091Z,54.04
2019-05-12T11:49:53.527Z,53.70
2019-05-12T11:52:20.517Z,54.08
2019-05-12T11:54:51.137Z,54.07
2019-05-12T11:57:20.088Z,54.30
2019-05-12T11:59:58.037Z,54.80
2019-05-12T12:02:20.091Z,54.82
2019-05-12T12:04:45.308Z,53.34
2019-05-12T12:07:14.408Z,52.06
2019-05-12T12:09:43.830Z,51.26
2019-05-12T12:12:13.586Z,50.62
2019-05-12T12:14:46.232Z,49.66
2019-05-12T12:17:09.400Z,49.08
2019-05-12T12:19:43.651Z,49.06
2019-05-12T12:22:05.140Z,48.71
2019-05-12T12:24:33.255Z,47.13
2019-05-12T12:27:00.486Z,46.80
2019-05-12T12:29:27.268Z,47.32
2019-05-12T12:31:55.589Z,48.20
2019-05-12T12:34:25.104Z,47.11
2019-05-12T12:36:51.432Z,46.56
2019-05-12T12:39:19.340Z,46.02
2019-05-12T12:41:56.345Z,45.26
2019-05-12T12:44:15.365Z,45.80
2019-05-12T12:46:44.063Z,45.10
2019-05-12T12:49:13.761Z,44.93
2019-05-12T12:51:40.184Z,45.43
2019-05-12T12:54:07.195Z,46.00
2019-05-12T12:56:34.158Z,45.35
2019-05-12T12:59:10.254Z,44.90
2019-05-12T13:01:35.704Z,44.98
2019-05-12T13:04:04.753Z,44.71
2019-05-12T13:06:31.463Z,43.40
2019-05-12T13:08:58.343Z,42.70
2019-05-12T13:11:33.238Z,42.74
2019-05-12T13:13:53.823Z,42.11
2019-05-12T13:16:20.608Z,41.18
2019-05-12T13:18:47.534Z,41.12
2019-05-12T13:21:14.298Z,40.70
2019-05-12T13:23:41.405Z,40.28
2019-05-12T13:26:08.752Z,40.59
2019-05-12T13:28:35.758Z,39.43
2019-05-12T13:31:11.017Z,39.25
2019-05-12T13:33:33.478Z,40.49
2019-05-12T13:36:01.021Z,41.56
2019-05-12T13:38:30.471Z,41.55
2019-05-12T13:40:56.530Z,40.80
2019-05-12T13:43:23.922Z,39.73
2019-05-12T13:45:53.239Z,38.65
2019-05-12T13:48:24.064Z,37.87
2019-05-12T13:50:53.713Z,37.40
2019-05-12T13:53:21.450Z,37.27
2019-05-12T13:55:49.721Z,36.47
2019-05-12T13:58:17.707Z,36.22
2019-05-12T14:00:50.857Z,36.19
2019-05-12T14:03:13.991Z,37.39
2019-05-12T14:05:50.424Z,37.86
2019-05-12T14:08:10.226Z,36.62
2019-05-12T14:10:37.615Z,35.97
2019-05-12T14:13:05.722Z,36.23
2019-05-12T14:15:34.156Z,36.41
2019-05-12T14:18:03.285Z,35.55
2019-05-12T14:20:30.033Z,35.03
2019-05-12T14:22:56.784Z,34.98
2019-05-12T14:25:29.850Z,34.70
2019-05-12T14:27:53.589Z,35.26
2019-05-12T14:30:21.162Z,35.97
2019-05-12T14:32:49.242Z,35.71
2019-05-12T14:35:17.546Z,34.79
2019-05-12T14:37:45.935Z,34.46
2019-05-12T14:40:13.513Z,34.28
2019-05-12T14:42:40.579Z,34.38
2019-05-12T14:45:07.899Z,34.71
2019-05-12T14:47:34.630Z,34.67
2019-05-12T14:50:03.797Z,34.26
2019-05-12T14:52:33.277Z,33.77
2019-05-12T14:55:00.344Z,34.03
2019-05-12T14:57:29.360Z,34.46
2019-05-12T14:59:56.009Z,34.74
2019-05-12T15:02:27.726Z,34.69
2019-05-12T15:04:54.130Z,34.81
2019-05-12T15:07:20.772Z,34.92
2019-05-12T15:09:47.577Z,35.48
2019-05-12T15:12:14.496Z,35.81
2019-05-12T15:14:43.662Z,35.28
2019-05-12T15:17:13.874Z,35.38
2019-05-12T15:19:40.352Z,35.28
2019-05-12T15:22:11.817Z,35.33
2019-05-12T15:24:35.969Z,34.71
2019-05-12T15:27:03.904Z,34.87
2019-05-12T15:29:30.800Z,34.89
2019-05-12T15:31:57.637Z,35.13
2019-05-12T15:34:24.386Z,34.49
2019-05-12T15:36:55.458Z,34.30
2019-05-12T15:39:20.515Z,35.02
2019-05-12T15:41:51.140Z,35.90
2019-05-12T15:44:24.798Z,36.34
2019-05-12T15:46:48.228Z,37.05
2019-05-12T15:49:35.190Z,36.79
2019-05-12T15:52:03.523Z,36.74
2019-05-12T15:54:35.802Z,36.82
2019-05-12T15:57:00.230Z,36.88
2019-05-12T15:59:27.119Z,37.19
2019-05-12T16:02:08.383Z,37.47
2019-05-12T16:04:23.057Z,37.60
2019-05-12T16:06:57.088Z,37.74
2019-05-12T16:09:24.672Z,37.93
2019-05-12T16:11:51.437Z,37.99
2019-05-12T16:14:20.364Z,37.73
2019-05-12T16:16:47.226Z,37.85
2019-05-12T16:19:14.680Z,38.26
2019-05-12T16:21:45.585Z,38.46
2019-05-12T16:24:15.462Z,38.43
2019-05-12T16:26:51.576Z,38.58
2019-05-12T16:29:13.922Z,38.70
2019-05-12T16:31:45.567Z,39.01
2019-05-12T16:34:09.639Z,39.03
2019-05-12T16:36:41.234Z,39.45
2019-05-12T16:39:08.357Z,39.33
2019-05-12T16:41:35.293Z,39.08
2019-05-12T16:44:09.568Z,38.97
2019-05-12T16:46:31.374Z,38.84
2019-05-12T16:48:58.448Z,38.83
2019-05-12T16:51:26.483Z,38.96
2019-05-12T16:53:54.048Z,39.00
2019-05-12T16:56:28.067Z,39.34
2019-05-12T16:58:49.690Z,39.23
2019-05-12T17:01:24.325Z,39.20
2019-05-12T17:03:46.756Z,38.90
2019-05-12T17:06:14.402Z,38.66
2019-05-12T17:08:43.683Z,38.61
2019-05-12T17:11:25.375Z,38.43
2019-05-12T17:13:39.376Z,38.63
2019-05-12T17:16:06.403Z,38.90
2019-05-12T17:18:33.978Z,39.22
2019-05-12T17:21:01.104Z,39.49
2019-05-12T17:23:28.354Z,39.70
2019-05-12T17:25:58.994Z,39.72
2019-05-12T17:28:26.259Z,40.01
2019-05-12T17:30:54.390Z,40.12
2019-05-12T17:33:23.119Z,40.25
2019-05-12T17:35:50.453Z,40.26
2019-05-12T17:38:19.738Z,39.97
2019-05-12T17:40:50.276Z,39.83
2019-05-12T17:43:15.049Z,39.95
2019-05-12T17:45:44.150Z,39.80
2019-05-12T17:48:10.803Z,39.91
2019-05-12T17:50:40.547Z,39.85
2019-05-12T17:53:07.290Z,39.69
2019-05-12T17:55:34.081Z,39.20
2019-05-12T17:58:01.021Z,39.38
2019-05-12T18:00:28.338Z,39.48
2019-05-12T18:03:14.090Z,39.27
2019-05-12T18:05:23.987Z,39.45
2019-05-12T18:07:53.194Z,39.38
2019-05-12T18:10:20.232Z,39.19
2019-05-12T18:12:48.295Z,39.23
2019-05-12T18:15:16.000Z,39.60
2019-05-12T18:17:45.245Z,39.43
2019-05-12T18:20:14.403Z,39.69
2019-05-12T18:22:45.041Z,39.73
2019-05-12T18:25:11.155Z,40.11
2019-05-12T18:27:44.543Z,40.29
2019-05-12T18:30:08.681Z,40.47
2019-05-12T18:32:35.489Z,40.50
2019-05-12T18:35:06.169Z,40.70
2019-05-12T18:37:34.412Z,40.49
2019-05-12T18:40:03.956Z,40.53
2019-05-12T18:42:33.597Z,40.58
2019-05-12T18:45:02.367Z,40.77
2019-05-12T18:47:34.189Z,41.03
2019-05-12T18:49:58.963Z,41.18
2019-05-12T18:52:29.181Z,41.24
2019-05-12T18:54:57.273Z,41.61
2019-05-12T18:57:26.200Z,41.71
2019-05-12T18:59:55.166Z,41.85
2019-05-12T19:02:27.920Z,42.31
2019-05-12T19:04:55.645Z,43.51
2019-05-12T19:07:38.646Z,44.80
2019-05-12T19:09:51.568Z,45.19
2019-05-12T19:12:22.506Z,45.77
2019-05-12T19:14:47.601Z,46.65
2019-05-12T19:17:14.378Z,47.35
2019-05-12T19:19:41.671Z,47.93
2019-05-12T19:22:09.702Z,48.50
2019-05-12T19:24:37.348Z,49.20
2019-05-12T19:27:04.459Z,50.14
2019-05-12T19:29:38.247Z,51.30
2019-05-12T19:32:00.388Z,52.19
2019-05-12T19:34:31.786Z,51.87
2019-05-12T19:36:56.459Z,51.98
2019-05-12T19:39:25.408Z,52.57
2019-05-12T19:41:54.394Z,53.09
2019-05-12T19:44:26.518Z,53.03
2019-05-12T19:46:53.988Z,52.51
2019-05-12T19:49:26.164Z,52.82
2019-05-12T19:51:51.040Z,52.77
2019-05-12T19:54:19.370Z,52.97
2019-05-12T19:56:47.289Z,53.04
2019-05-12T19:59:14.769Z,53.10
2019-05-12T20:01:44.358Z,54.36
2019-05-12T20:04:10.983Z,55.59
2019-05-12T20:06:37.916Z,56.23
2019-05-12T20:09:10.122Z,57.06
2019-05-12T20:11:34.319Z,56.77
2019-05-12T20:14:01.138Z,56.72
2019-05-12T20:16:30.726Z,57.72
2019-05-12T20:18:58.066Z,57.59
2019-05-12T20:21:25.881Z,58.28
2019-05-12T20:23:54.402Z,58.78
2019-05-12T20:26:23.569Z,58.18
2019-05-12T20:28:53.391Z,58.90
2019-05-12T20:31:23.475Z,58.90
2019-05-12T20:33:48.907Z,58.85
2019-05-12T20:36:20.512Z,59.19
2019-05-12T20:38:44.603Z,59.80
2019-05-12T20:41:22.364Z,59.47
2019-05-12T20:43:42.030Z,59.28
2019-05-12T20:46:13.090Z,59.92
2019-05-12T20:48:37.702Z,60.80
2019-05-12T20:51:08.668Z,60.56
2019-05-12T20:53:36.446Z,61.13
2019-05-12T20:56:03.686Z,60.88
2019-05-12T20:58:35.214Z,61.77
2019-05-12T21:01:04.518Z,62.20
2019-05-12T21:03:30.349Z,62.94
2019-05-12T21:06:01.442Z,62.41
2019-05-12T21:08:26.385Z,62.38
2019-05-12T21:10:54.230Z,63.29
2019-05-12T21:13:29.695Z,62.76
2019-05-12T21:15:53.738Z,63.23
2019-05-12T21:18:19.861Z,63.93
2019-05-12T21:20:52.301Z,64.25
2019-05-12T21:23:17.482Z,64.21
2019-05-12T21:25:52.181Z,64.03
2019-05-12T21:28:14.811Z,63.66
2019-05-12T21:30:42.461Z,62.85
2019-05-12T21:33:10.652Z,62.43
2019-05-12T21:35:40.532Z,62.49
2019-05-12T21:38:06.210Z,63.21
2019-05-12T21:40:35.093Z,63.08
2019-05-12T21:43:04.084Z,64.72
2019-05-12T21:45:33.875Z,65.32
2019-05-12T21:48:00.989Z,65.66
2019-05-12T21:50:32.633Z,65.43
2019-05-12T21:52:59.984Z,65.69
2019-05-12T21:55:26.821Z,66.13
2019-05-12T21:57:53.997Z,65.43
2019-05-12T22:00:31.214Z,64.89
2019-05-12T22:03:02.663Z,64.69
2019-05-12T22:05:46.915Z,65.35
2019-05-12T22:07:56.330Z,65.43
2019-05-12T22:10:26.770Z,65.77
2019-05-12T22:12:53.339Z,64.92
2019-05-12T22:15:24.274Z,66.00
2019-05-12T22:17:58.535Z,65.91
2019-05-12T22:20:25.885Z,66.84
2019-05-12T22:22:52.826Z,66.31
2019-05-12T22:25:19.636Z,66.22
2019-05-12T22:27:46.900Z,67.41
2019-05-12T22:30:14.313Z,67.03
2019-05-12T22:32:43.352Z,67.17
2019-05-12T22:35:13.187Z,68.16
2019-05-12T22:37:39.710Z,67.06
2019-05-12T22:40:15.077Z,66.56
2019-05-12T22:42:35.358Z,66.69
2019-05-12T22:45:05.947Z,67.40
2019-05-12T22:47:33.530Z,66.96
2019-05-12T22:50:00.788Z,66.15
2019-05-12T22:52:27.579Z,65.81
2019-05-12T22:54:54.317Z,66.29
2019-05-12T22:57:21.199Z,65.96
2019-05-12T22:59:48.564Z,65.76
2019-05-12T23:02:24.559Z,66.09
2019-05-12T23:04:44.411Z,66.18
2019-05-12T23:07:13.841Z,66.78
2019-05-12T23:09:40.649Z,67.19
2019-05-12T23:12:09.664Z,67.37
2019-05-12T23:14:37.586Z,66.57
2019-05-12T23:17:07.532Z,66.50
2019-05-12T23:19:34.794Z,65.93
2019-05-12T23:22:03.523Z,65.61
2019-05-12T23:24:37.299Z,65.64
2019-05-12T23:27:04.639Z,65.84
2019-05-12T23:29:31.232Z,65.56
2019-05-12T23:32:11.561Z,65.23
2019-05-12T23:34:34.806Z,65.95
2019-05-12T23:37:03.875Z,67.33
2019-05-12T23:39:32.545Z,67.91
2019-05-12T23:41:59.582Z,67.41
2019-05-12T23:44:26.740Z,68.44
2019-05-12T23:46:56.017Z,67.59
2019-05-12T23:49:24.454Z,66.95
2019-05-12T23:51:54.154Z,67.40
2019-05-12T23:54:20.800Z,67.76
2019-05-12T23:56:47.831Z,68.32
2019-05-12T23:59:14.706Z,68.26
